Terminal Aerodrome Forecast
Issued by NWS

Home | Current Version | Previous Version | Text Only | Print | Product List | Glossary On
Versions: 1 2 3 4 5 6 7 8 9 10 11 12 13
000
FTUS43 KDVN 240520
TAFCID
TAF
KCID 240520Z 2406/2506 16004KT P6SM SCT200
     FM241500 17012KT P6SM SCT200
     FM242000 16015G24KT P6SM SCT200
     FM250100 14009KT P6SM BKN200=

USA.gov is the U.S. government's official web portal to all federal, state and local government web resources and services.